GLO1800 SBBR-SBRJ
Flight info
| Callsign | GLO1800 |
|---|---|
| Flight time | N/A |
| Altitude | 33000 |
| Route | GEPMO UZ6 TOKIM |
| Aircraft | B73G/M-DGVW/C |
Departure
| Time | 2026-04-29 07:54 |
|---|---|
| Airport | Presidente Juscelino Kubitschek International Airport (SBBR) |
Arrival
| Time | N/A |
|---|---|
| Airport | Santos Dumont Airport (SBRJ) |
| Time | Latitude | Longitude | Altitude | Speed | Heading |
|---|---|---|---|---|---|
| 2026-04-29 07:26 | -15.86841 | -47.91786 | 3469 ft | 0 kts | 1° |
| 2026-04-29 07:46 | -15.86844 | -47.91786 | 3496 ft | 2 kts | 1° |
| 2026-04-29 07:46 | -15.86861 | -47.91786 | 3468 ft | 4 kts | 355° |
| 2026-04-29 07:47 | -15.86894 | -47.91786 | 3468 ft | 4 kts | 26° |
| 2026-04-29 07:47 | -15.86909 | -47.91804 | 3468 ft | 4 kts | 79° |
| 2026-04-29 07:47 | -15.86911 | -47.91815 | 3466 ft | 1 kts | 86° |
| 2026-04-29 07:47 | -15.86911 | -47.91819 | 3466 ft | 0 kts | 86° |
| 2026-04-29 07:49 | -15.86910 | -47.91810 | 3466 ft | 6 kts | 85° |
| 2026-04-29 07:49 | -15.86902 | -47.91720 | 3469 ft | 18 kts | 85° |
| 2026-04-29 07:50 | -15.86877 | -47.91612 | 3469 ft | 14 kts | 28° |
| 2026-04-29 07:50 | -15.86767 | -47.91614 | 3469 ft | 20 kts | 355° |
| 2026-04-29 07:50 | -15.86642 | -47.91624 | 3469 ft | 22 kts | 356° |
| 2026-04-29 07:50 | -15.86503 | -47.91638 | 3468 ft | 14 kts | 335° |
| 2026-04-29 07:51 | -15.86486 | -47.91742 | 3470 ft | 17 kts | 264° |
| 2026-04-29 07:51 | -15.86496 | -47.91873 | 3470 ft | 20 kts | 266° |
| 2026-04-29 07:51 | -15.86506 | -47.92042 | 3469 ft | 26 kts | 266° |
| 2026-04-29 07:51 | -15.86517 | -47.92225 | 3469 ft | 24 kts | 266° |
| 2026-04-29 07:52 | -15.86529 | -47.92395 | 3469 ft | 23 kts | 265° |
| 2026-04-29 07:52 | -15.86541 | -47.92558 | 3469 ft | 23 kts | 266° |
| 2026-04-29 07:52 | -15.86551 | -47.92725 | 3469 ft | 18 kts | 270° |
| 2026-04-29 07:52 | -15.86480 | -47.92770 | 3466 ft | 15 kts | 355° |
| 2026-04-29 07:53 | -15.86371 | -47.92730 | 3465 ft | 18 kts | 49° |
| 2026-04-29 07:53 | -15.86340 | -47.92536 | 3468 ft | 52 kts | 85° |
| 2026-04-29 07:53 | -15.86300 | -47.91888 | 3472 ft | 126 kts | 86° |
| 2026-04-29 07:53 | -15.86221 | -47.90782 | 3519 ft | 181 kts | 85° |
| 2026-04-29 07:54 | -15.86126 | -47.89394 | 4161 ft | 200 kts | 88° |
| 2026-04-29 07:54 | -15.86299 | -47.87898 | 4711 ft | 216 kts | 111° |
| 2026-04-29 07:54 | -15.87250 | -47.86712 | 5229 ft | 221 kts | 140° |
| 2026-04-29 07:54 | -15.88590 | -47.85853 | 5818 ft | 235 kts | 154° |
| 2026-04-29 07:55 | -15.90282 | -47.85438 | 6384 ft | 260 kts | 170° |
| 2026-04-29 07:55 | -15.92121 | -47.85213 | 6878 ft | 277 kts | 171° |
| 2026-04-29 07:55 | -15.94048 | -47.84997 | 7437 ft | 281 kts | 172° |
| 2026-04-29 07:55 | -15.96012 | -47.84843 | 7989 ft | 284 kts | 174° |
| 2026-04-29 07:56 | -15.98006 | -47.84716 | 8553 ft | 289 kts | 174° |
| 2026-04-29 07:56 | -16.00008 | -47.84501 | 9090 ft | 291 kts | 162° |
| 2026-04-29 07:56 | -16.01804 | -47.83573 | 9645 ft | 288 kts | 141° |
| 2026-04-29 07:56 | -16.03367 | -47.82265 | 10223 ft | 290 kts | 141° |
| 2026-04-29 07:57 | -16.05066 | -47.81100 | 10679 ft | 294 kts | 148° |
| 2026-04-29 07:57 | -16.06861 | -47.80045 | 11224 ft | 296 kts | 150° |
| 2026-04-29 07:57 | -16.08688 | -47.79002 | 11412 ft | 312 kts | 150° |
| 2026-04-29 07:57 | -16.10696 | -47.77846 | 11435 ft | 346 kts | 149° |
| 2026-04-29 07:58 | -16.12854 | -47.76590 | 11421 ft | 362 kts | 150° |
| 2026-04-29 07:58 | -16.15062 | -47.75293 | 11420 ft | 363 kts | 149° |
| 2026-04-29 07:58 | -16.17265 | -47.73987 | 11652 ft | 369 kts | 149° |
| 2026-04-29 07:58 | -16.19495 | -47.72655 | 12551 ft | 369 kts | 149° |
| 2026-04-29 07:59 | -16.21726 | -47.71317 | 13380 ft | 372 kts | 149° |
| 2026-04-29 07:59 | -16.23985 | -47.69957 | 14048 ft | 378 kts | 150° |
| 2026-04-29 07:59 | -16.26282 | -47.68572 | 14614 ft | 385 kts | 149° |
| 2026-04-29 07:59 | -16.28565 | -47.67194 | 15189 ft | 390 kts | 149° |
| 2026-04-29 08:00 | -16.30923 | -47.65771 | 15824 ft | 394 kts | 149° |
| 2026-04-29 08:00 | -16.33306 | -47.64330 | 16401 ft | 399 kts | 149° |
| 2026-04-29 08:00 | -16.35720 | -47.62871 | 16965 ft | 404 kts | 149° |
| 2026-04-29 08:00 | -16.38166 | -47.61391 | 17518 ft | 409 kts | 148° |
| 2026-04-29 08:01 | -16.40638 | -47.59895 | 18059 ft | 413 kts | 148° |
| 2026-04-29 08:01 | -16.43134 | -47.58385 | 18524 ft | 418 kts | 148° |
| 2026-04-29 08:01 | -16.45661 | -47.56855 | 19026 ft | 420 kts | 149° |
| 2026-04-29 08:01 | -16.48172 | -47.55336 | 19717 ft | 417 kts | 149° |
| 2026-04-29 08:02 | -16.50686 | -47.53814 | 20205 ft | 420 kts | 149° |
| 2026-04-29 08:02 | -16.53228 | -47.52274 | 20631 ft | 425 kts | 149° |
| 2026-04-29 08:02 | -16.55756 | -47.50742 | 21071 ft | 428 kts | 149° |
| 2026-04-29 08:02 | -16.58338 | -47.49177 | 21540 ft | 430 kts | 149° |
| 2026-04-29 08:03 | -16.60936 | -47.47602 | 21998 ft | 433 kts | 149° |
| 2026-04-29 08:03 | -16.63548 | -47.46017 | 22443 ft | 436 kts | 149° |
| 2026-04-29 08:03 | -16.66177 | -47.44422 | 22869 ft | 439 kts | 149° |
| 2026-04-29 08:03 | -16.68825 | -47.42815 | 23283 ft | 442 kts | 149° |
| 2026-04-29 08:04 | -16.71489 | -47.41197 | 23673 ft | 445 kts | 149° |
| 2026-04-29 08:04 | -16.74172 | -47.39568 | 24010 ft | 447 kts | 149° |
| 2026-04-29 08:04 | -16.76867 | -47.37930 | 24342 ft | 450 kts | 149° |
| 2026-04-29 08:04 | -16.79576 | -47.36284 | 24692 ft | 452 kts | 149° |
| 2026-04-29 08:05 | -16.82301 | -47.34627 | 25014 ft | 454 kts | 149° |
| 2026-04-29 08:05 | -16.85042 | -47.32960 | 25324 ft | 457 kts | 149° |
| 2026-04-29 08:05 | -16.87794 | -47.31286 | 25641 ft | 460 kts | 149° |
| 2026-04-29 08:05 | -16.90565 | -47.29599 | 25926 ft | 463 kts | 149° |
| 2026-04-29 08:06 | -16.93356 | -47.27901 | 26174 ft | 467 kts | 149° |
| 2026-04-29 08:06 | -16.96166 | -47.26189 | 26475 ft | 469 kts | 149° |
| 2026-04-29 08:06 | -16.98989 | -47.24469 | 26789 ft | 471 kts | 149° |
| 2026-04-29 08:06 | -17.01828 | -47.22740 | 27091 ft | 473 kts | 149° |
| 2026-04-29 08:07 | -17.04671 | -47.21006 | 27388 ft | 475 kts | 149° |
| 2026-04-29 08:07 | -17.07533 | -47.19261 | 27673 ft | 477 kts | 149° |
| 2026-04-29 08:07 | -17.10406 | -47.17508 | 27950 ft | 480 kts | 149° |
| 2026-04-29 08:07 | -17.13299 | -47.15742 | 28216 ft | 482 kts | 149° |
| 2026-04-29 08:08 | -17.16203 | -47.13969 | 28470 ft | 485 kts | 149° |
| 2026-04-29 08:08 | -17.19119 | -47.12188 | 28735 ft | 487 kts | 149° |
| 2026-04-29 08:08 | -17.22053 | -47.10396 | 28995 ft | 489 kts | 149° |
| 2026-04-29 08:08 | -17.24993 | -47.08599 | 29248 ft | 491 kts | 149° |
| 2026-04-29 08:09 | -17.27946 | -47.06794 | 29558 ft | 491 kts | 149° |
| 2026-04-29 08:09 | -17.30897 | -47.04989 | 29958 ft | 490 kts | 149° |
| 2026-04-29 08:09 | -17.33836 | -47.03190 | 30335 ft | 489 kts | 149° |
| 2026-04-29 08:09 | -17.36772 | -47.01393 | 30671 ft | 489 kts | 149° |
| 2026-04-29 08:10 | -17.39709 | -46.99595 | 31013 ft | 489 kts | 149° |
| 2026-04-29 08:10 | -17.42637 | -46.97801 | 31427 ft | 487 kts | 149° |
| 2026-04-29 08:10 | -17.45548 | -46.96017 | 31868 ft | 484 kts | 150° |
| 2026-04-29 08:10 | -17.48447 | -46.94239 | 32304 ft | 482 kts | 150° |
| 2026-04-29 08:11 | -17.51338 | -46.92466 | 32744 ft | 480 kts | 150° |
| 2026-04-29 08:11 | -17.54217 | -46.90701 | 32966 ft | 482 kts | 150° |
| 2026-04-29 08:11 | -17.60055 | -46.87117 | 32971 ft | 490 kts | 150° |
| 2026-04-29 08:12 | -17.65981 | -46.83477 | 32974 ft | 495 kts | 150° |
| 2026-04-29 08:12 | -17.71921 | -46.79825 | 32967 ft | 495 kts | 150° |
| 2026-04-29 08:13 | -17.77860 | -46.76170 | 32968 ft | 495 kts | 150° |
| 2026-04-29 08:13 | -17.83765 | -46.72534 | 32960 ft | 495 kts | 150° |
| 2026-04-29 08:14 | -17.89701 | -46.68876 | 32967 ft | 495 kts | 150° |
| 2026-04-29 08:14 | -17.95632 | -46.65218 | 32968 ft | 494 kts | 150° |
| 2026-04-29 08:15 | -18.01563 | -46.61558 | 32961 ft | 495 kts | 150° |
| 2026-04-29 08:15 | -18.07495 | -46.57893 | 32973 ft | 495 kts | 150° |
| 2026-04-29 08:16 | -18.13432 | -46.54224 | 32981 ft | 495 kts | 150° |
| 2026-04-29 08:16 | -18.19358 | -46.50557 | 32978 ft | 495 kts | 150° |
| 2026-04-29 08:17 | -18.25291 | -46.46884 | 32981 ft | 495 kts | 150° |
| 2026-04-29 08:17 | -18.31218 | -46.43211 | 32991 ft | 495 kts | 150° |
| 2026-04-29 08:18 | -18.37147 | -46.39533 | 32990 ft | 495 kts | 150° |
| 2026-04-29 08:18 | -18.43076 | -46.35853 | 32989 ft | 495 kts | 150° |
| 2026-04-29 08:19 | -18.49003 | -46.32170 | 32998 ft | 495 kts | 150° |
| 2026-04-29 08:19 | -18.55017 | -46.28634 | 32999 ft | 495 kts | 155° |
| 2026-04-29 08:20 | -18.61241 | -46.25558 | 33002 ft | 495 kts | 156° |
| 2026-04-29 08:20 | -18.67463 | -46.22555 | 33004 ft | 495 kts | 156° |
| 2026-04-29 08:21 | -18.73747 | -46.19452 | 33000 ft | 496 kts | 156° |
| 2026-04-29 08:21 | -18.79936 | -46.16352 | 33001 ft | 496 kts | 156° |
| 2026-04-29 08:22 | -18.86168 | -46.13224 | 33004 ft | 496 kts | 156° |
| 2026-04-29 08:22 | -18.92397 | -46.10098 | 33010 ft | 496 kts | 156° |
| 2026-04-29 08:23 | -18.98627 | -46.06972 | 32999 ft | 496 kts | 156° |
| 2026-04-29 08:23 | -19.04851 | -46.03845 | 33012 ft | 495 kts | 156° |
| 2026-04-29 08:24 | -19.11076 | -46.00715 | 33009 ft | 496 kts | 156° |
| 2026-04-29 08:24 | -19.17288 | -45.97541 | 33011 ft | 496 kts | 153° |
| 2026-04-29 08:25 | -19.23314 | -45.93956 | 33020 ft | 497 kts | 150° |
| 2026-04-29 08:25 | -19.29277 | -45.90253 | 33009 ft | 497 kts | 151° |
| 2026-04-29 08:26 | -19.35266 | -45.86586 | 33012 ft | 497 kts | 151° |
| 2026-04-29 08:26 | -19.41274 | -45.82943 | 33008 ft | 498 kts | 152° |
| 2026-04-29 08:27 | -19.47287 | -45.79295 | 33007 ft | 498 kts | 151° |
| 2026-04-29 08:27 | -19.53293 | -45.75628 | 33000 ft | 498 kts | 151° |
| 2026-04-29 08:28 | -19.59247 | -45.71845 | 32995 ft | 499 kts | 150° |
| 2026-04-29 08:28 | -19.65186 | -45.68029 | 32992 ft | 499 kts | 150° |
| 2026-04-29 08:29 | -19.71127 | -45.64226 | 32989 ft | 499 kts | 150° |
| 2026-04-29 08:29 | -19.77083 | -45.60422 | 32992 ft | 499 kts | 150° |
| 2026-04-29 08:30 | -19.85977 | -45.54741 | 32993 ft | 499 kts | 150° |
| 2026-04-29 08:31 | -19.91970 | -45.50907 | 32994 ft | 500 kts | 150° |
| 2026-04-29 08:31 | -19.97932 | -45.47089 | 33003 ft | 500 kts | 150° |
| 2026-04-29 08:32 | -20.03859 | -45.43289 | 33000 ft | 501 kts | 150° |
| 2026-04-29 08:32 | -20.09830 | -45.39458 | 33001 ft | 501 kts | 150° |
| 2026-04-29 08:33 | -20.15829 | -45.35574 | 33011 ft | 502 kts | 150° |
| 2026-04-29 08:33 | -20.21730 | -45.31699 | 33012 ft | 502 kts | 150° |
| 2026-04-29 08:34 | -20.27670 | -45.27794 | 33014 ft | 502 kts | 150° |
| 2026-04-29 08:34 | -20.33609 | -45.23893 | 33014 ft | 502 kts | 150° |
| 2026-04-29 08:35 | -20.39554 | -45.19988 | 33019 ft | 502 kts | 150° |
| 2026-04-29 08:35 | -20.45500 | -45.16079 | 33015 ft | 502 kts | 150° |
| 2026-04-29 08:36 | -20.51443 | -45.12168 | 33022 ft | 502 kts | 150° |
| 2026-04-29 08:36 | -20.56426 | -45.08886 | 33022 ft | 503 kts | 150° |
| 2026-04-29 08:37 | -20.62377 | -45.04963 | 33017 ft | 503 kts | 150° |
| 2026-04-29 08:37 | -20.68288 | -45.01061 | 33021 ft | 503 kts | 150° |
| 2026-04-29 08:38 | -20.74241 | -44.97129 | 33016 ft | 504 kts | 150° |
| 2026-04-29 08:38 | -20.80221 | -44.93205 | 33018 ft | 505 kts | 150° |
| 2026-04-29 08:39 | -20.86213 | -44.89290 | 33018 ft | 505 kts | 150° |
| 2026-04-29 08:39 | -20.92208 | -44.85364 | 33015 ft | 505 kts | 150° |
| 2026-04-29 08:40 | -20.98203 | -44.81429 | 33018 ft | 505 kts | 150° |
| 2026-04-29 08:40 | -21.04188 | -44.77497 | 33020 ft | 505 kts | 150° |
| 2026-04-29 08:41 | -21.10195 | -44.73620 | 33019 ft | 504 kts | 152° |
| 2026-04-29 08:41 | -21.16230 | -44.69797 | 33020 ft | 504 kts | 151° |
| 2026-04-29 08:42 | -21.22242 | -44.65931 | 33027 ft | 504 kts | 150° |
| 2026-04-29 08:42 | -21.28209 | -44.61956 | 33034 ft | 505 kts | 150° |
| 2026-04-29 08:43 | -21.34181 | -44.57996 | 33030 ft | 506 kts | 150° |
| 2026-04-29 08:43 | -21.40172 | -44.54035 | 33035 ft | 506 kts | 150° |
| 2026-04-29 08:44 | -21.46177 | -44.50060 | 33033 ft | 507 kts | 150° |
| 2026-04-29 08:44 | -21.52174 | -44.46083 | 33036 ft | 507 kts | 150° |
| 2026-04-29 08:45 | -21.58191 | -44.42090 | 32625 ft | 513 kts | 150° |
| 2026-04-29 08:45 | -21.61234 | -44.40069 | 32128 ft | 513 kts | 150° |
| 2026-04-29 08:45 | -21.64264 | -44.38054 | 31667 ft | 512 kts | 150° |
| 2026-04-29 08:45 | -21.67301 | -44.36034 | 31208 ft | 515 kts | 150° |
| 2026-04-29 08:46 | -21.70353 | -44.34003 | 30736 ft | 517 kts | 150° |
| 2026-04-29 08:46 | -21.73413 | -44.31966 | 30285 ft | 518 kts | 150° |
| 2026-04-29 08:46 | -21.76485 | -44.29920 | 29790 ft | 520 kts | 150° |
| 2026-04-29 08:46 | -21.79558 | -44.27872 | 29272 ft | 520 kts | 149° |
| 2026-04-29 08:47 | -21.82637 | -44.25819 | 28753 ft | 520 kts | 149° |
| 2026-04-29 08:47 | -21.85710 | -44.23768 | 28244 ft | 520 kts | 149° |
| 2026-04-29 08:47 | -21.88785 | -44.21715 | 27754 ft | 519 kts | 150° |
| 2026-04-29 08:47 | -21.91855 | -44.19668 | 27265 ft | 519 kts | 150° |
| 2026-04-29 08:48 | -21.94992 | -44.17762 | 26780 ft | 517 kts | 154° |
| 2026-04-29 08:48 | -21.98206 | -44.16032 | 26304 ft | 516 kts | 156° |
| 2026-04-29 08:48 | -22.01448 | -44.14379 | 25847 ft | 516 kts | 156° |
| 2026-04-29 08:48 | -22.04699 | -44.12747 | 25385 ft | 515 kts | 156° |
| 2026-04-29 08:49 | -22.07942 | -44.11109 | 24937 ft | 514 kts | 156° |
| 2026-04-29 08:49 | -22.11168 | -44.09457 | 24483 ft | 513 kts | 156° |
| 2026-04-29 08:49 | -22.13292 | -44.08358 | 24185 ft | 511 kts | 156° |